SULAYMANIYAH INTERNATIONAL AIRPORT
  • SulyAir
  • SulyAir
1 1
Arrival

ArrivalsMore >>

Departure

DeparturesMore >>

TAF

TAF ORSU 082300Z 0900/0924 31006KT CAVOK=

METARs

METAR ORSU 082300Z 30006KT CAVOK 02/01 Q1025=